sensor_id;sensor_type;location;lat;lon;timestamp;P1;durP1;ratioP1;P2;durP2;ratioP2
34234;SDS011;20500;49.856;20.290;2024-02-04T00:00:11;5.40;;;1.80;;
34234;SDS011;20500;49.856;20.290;2024-02-04T00:03:20;4.80;;;1.70;;
34234;SDS011;20500;49.856;20.290;2024-02-04T00:06:27;6.60;;;2.10;;
34234;SDS011;20500;49.856;20.290;2024-02-04T00:09:33;5.60;;;1.90;;
34234;SDS011;20500;49.856;20.290;2024-02-04T00:12:39;6.20;;;2.00;;
34234;SDS011;20500;49.856;20.290;2024-02-04T00:15:46;5.70;;;2.10;;
34234;SDS011;20500;49.856;20.290;2024-02-04T00:18:52;4.70;;;1.70;;
34234;SDS011;20500;49.856;20.290;2024-02-04T00:21:59;6.50;;;2.00;;
34234;SDS011;20500;49.856;20.290;2024-02-04T00:28:15;3.50;;;1.60;;
34234;SDS011;20500;49.856;20.290;2024-02-04T00:31:21;6.20;;;2.00;;
34234;SDS011;20500;49.856;20.290;2024-02-04T00:37:32;4.40;;;1.80;;
34234;SDS011;20500;49.856;20.290;2024-02-04T00:40:39;6.20;;;2.30;;
34234;SDS011;20500;49.856;20.290;2024-02-04T00:43:45;8.60;;;3.30;;
34234;SDS011;20500;49.856;20.290;2024-02-04T00:46:51;5.70;;;1.90;;
34234;SDS011;20500;49.856;20.290;2024-02-04T00:53:02;9.50;;;3.00;;
34234;SDS011;20500;49.856;20.290;2024-02-04T00:56:08;5.70;;;1.60;;
34234;SDS011;20500;49.856;20.290;2024-02-04T00:59:15;6.00;;;2.00;;
34234;SDS011;20500;49.856;20.290;2024-02-04T01:05:26;7.90;;;3.00;;
34234;SDS011;20500;49.856;20.290;2024-02-04T01:11:37;6.50;;;2.30;;
34234;SDS011;20500;49.856;20.290;2024-02-04T01:14:44;4.90;;;1.70;;
34234;SDS011;20500;49.856;20.290;2024-02-04T01:20:55;8.90;;;2.70;;
34234;SDS011;20500;49.856;20.290;2024-02-04T01:24:03;4.50;;;1.70;;
34234;SDS011;20500;49.856;20.290;2024-02-04T01:27:10;4.40;;;1.80;;
34234;SDS011;20500;49.856;20.290;2024-02-04T01:30:16;5.40;;;2.20;;
34234;SDS011;20500;49.856;20.290;2024-02-04T01:33:23;5.30;;;2.00;;
34234;SDS011;20500;49.856;20.290;2024-02-04T01:36:29;6.80;;;2.10;;
34234;SDS011;20500;49.856;20.290;2024-02-04T01:39:35;5.60;;;1.80;;
34234;SDS011;20500;49.856;20.290;2024-02-04T01:45:47;8.10;;;3.00;;
34234;SDS011;20500;49.856;20.290;2024-02-04T01:48:54;5.90;;;2.00;;
34234;SDS011;20500;49.856;20.290;2024-02-04T01:52:01;4.90;;;1.90;;
34234;SDS011;20500;49.856;20.290;2024-02-04T01:55:09;5.70;;;1.90;;
34234;SDS011;20500;49.856;20.290;2024-02-04T01:58:16;4.30;;;1.80;;
34234;SDS011;20500;49.856;20.290;2024-02-04T02:01:22;5.10;;;2.20;;
34234;SDS011;20500;49.856;20.290;2024-02-04T02:04:29;5.00;;;2.00;;
34234;SDS011;20500;49.856;20.290;2024-02-04T02:07:36;5.10;;;1.90;;
34234;SDS011;20500;49.856;20.290;2024-02-04T02:10:42;6.40;;;2.30;;
34234;SDS011;20500;49.856;20.290;2024-02-04T02:13:54;4.90;;;1.80;;
34234;SDS011;20500;49.856;20.290;2024-02-04T02:17:06;4.60;;;1.80;;
34234;SDS011;20500;49.856;20.290;2024-02-04T02:20:23;6.00;;;2.10;;
34234;SDS011;20500;49.856;20.290;2024-02-04T02:23:34;5.20;;;1.90;;
34234;SDS011;20500;49.856;20.290;2024-02-04T02:26:48;5.10;;;1.90;;
34234;SDS011;20500;49.856;20.290;2024-02-04T02:29:56;5.40;;;2.10;;
34234;SDS011;20500;49.856;20.290;2024-02-04T02:33:03;6.10;;;2.10;;
34234;SDS011;20500;49.856;20.290;2024-02-04T02:36:11;8.70;;;2.70;;
34234;SDS011;20500;49.856;20.290;2024-02-04T02:39:27;8.60;;;2.40;;
34234;SDS011;20500;49.856;20.290;2024-02-04T02:42:43;7.40;;;2.70;;
34234;SDS011;20500;49.856;20.290;2024-02-04T02:45:53;7.30;;;2.50;;
34234;SDS011;20500;49.856;20.290;2024-02-04T02:49:00;6.70;;;2.30;;
34234;SDS011;20500;49.856;20.290;2024-02-04T02:52:07;5.60;;;2.10;;
34234;SDS011;20500;49.856;20.290;2024-02-04T02:55:13;5.20;;;2.20;;
34234;SDS011;20500;49.856;20.290;2024-02-04T02:58:20;6.10;;;2.20;;
34234;SDS011;20500;49.856;20.290;2024-02-04T03:01:26;4.50;;;1.90;;
34234;SDS011;20500;49.856;20.290;2024-02-04T03:07:37;5.20;;;2.00;;
34234;SDS011;20500;49.856;20.290;2024-02-04T03:13:48;6.70;;;2.30;;
34234;SDS011;20500;49.856;20.290;2024-02-04T03:16:54;5.70;;;1.90;;
34234;SDS011;20500;49.856;20.290;2024-02-04T03:23:05;6.20;;;2.10;;
34234;SDS011;20500;49.856;20.290;2024-02-04T03:29:15;4.10;;;1.80;;
34234;SDS011;20500;49.856;20.290;2024-02-04T03:32:22;6.00;;;2.40;;
34234;SDS011;20500;49.856;20.290;2024-02-04T03:35:28;5.80;;;2.20;;
34234;SDS011;20500;49.856;20.290;2024-02-04T03:38:34;6.40;;;1.90;;
34234;SDS011;20500;49.856;20.290;2024-02-04T03:41:41;5.10;;;1.80;;
34234;SDS011;20500;49.856;20.290;2024-02-04T03:44:47;6.30;;;2.20;;
34234;SDS011;20500;49.856;20.290;2024-02-04T03:50:58;6.00;;;1.50;;
34234;SDS011;20500;49.856;20.290;2024-02-04T03:57:09;5.20;;;1.70;;
34234;SDS011;20500;49.856;20.290;2024-02-04T04:00:16;4.00;;;1.60;;
34234;SDS011;20500;49.856;20.290;2024-02-04T04:03:22;4.10;;;1.40;;
34234;SDS011;20500;49.856;20.290;2024-02-04T04:09:33;4.40;;;1.80;;
34234;SDS011;20500;49.856;20.290;2024-02-04T04:15:44;5.20;;;1.50;;
34234;SDS011;20500;49.856;20.290;2024-02-04T04:21:55;4.60;;;1.40;;
34234;SDS011;20500;49.856;20.290;2024-02-04T04:25:03;2.90;;;1.10;;
34234;SDS011;20500;49.856;20.290;2024-02-04T04:28:10;2.80;;;1.20;;
34234;SDS011;20500;49.856;20.290;2024-02-04T04:34:21;3.10;;;1.30;;
34234;SDS011;20500;49.856;20.290;2024-02-04T04:37:27;3.50;;;1.10;;
34234;SDS011;20500;49.856;20.290;2024-02-04T04:40:33;3.90;;;1.40;;
34234;SDS011;20500;49.856;20.290;2024-02-04T04:43:39;3.40;;;1.40;;
34234;SDS011;20500;49.856;20.290;2024-02-04T04:46:45;2.10;;;1.10;;
34234;SDS011;20500;49.856;20.290;2024-02-04T04:52:56;3.70;;;1.40;;
34234;SDS011;20500;49.856;20.290;2024-02-04T04:56:02;3.50;;;1.30;;
34234;SDS011;20500;49.856;20.290;2024-02-04T04:59:09;5.50;;;1.50;;
34234;SDS011;20500;49.856;20.290;2024-02-04T05:05:20;3.90;;;1.30;;
34234;SDS011;20500;49.856;20.290;2024-02-04T05:08:26;5.10;;;1.60;;
34234;SDS011;20500;49.856;20.290;2024-02-04T05:14:37;3.70;;;1.40;;
34234;SDS011;20500;49.856;20.290;2024-02-04T05:20:48;6.00;;;1.50;;
34234;SDS011;20500;49.856;20.290;2024-02-04T05:26:59;5.30;;;1.90;;
34234;SDS011;20500;49.856;20.290;2024-02-04T05:30:06;6.40;;;1.90;;
34234;SDS011;20500;49.856;20.290;2024-02-04T05:33:15;3.60;;;1.30;;
34234;SDS011;20500;49.856;20.290;2024-02-04T05:36:21;4.00;;;1.20;;
34234;SDS011;20500;49.856;20.290;2024-02-04T05:39:27;6.30;;;1.40;;
34234;SDS011;20500;49.856;20.290;2024-02-04T05:42:33;5.30;;;1.60;;
34234;SDS011;20500;49.856;20.290;2024-02-04T05:45:40;5.30;;;1.60;;
34234;SDS011;20500;49.856;20.290;2024-02-04T05:48:46;5.10;;;1.20;;
34234;SDS011;20500;49.856;20.290;2024-02-04T05:51:53;4.90;;;1.50;;
34234;SDS011;20500;49.856;20.290;2024-02-04T05:58:07;5.30;;;1.90;;
34234;SDS011;20500;49.856;20.290;2024-02-04T06:01:15;6.90;;;1.90;;
34234;SDS011;20500;49.856;20.290;2024-02-04T06:04:21;6.10;;;1.90;;
34234;SDS011;20500;49.856;20.290;2024-02-04T06:10:32;4.30;;;1.80;;
34234;SDS011;20500;49.856;20.290;2024-02-04T06:16:43;5.50;;;1.80;;
34234;SDS011;20500;49.856;20.290;2024-02-04T06:19:49;4.00;;;1.50;;
34234;SDS011;20500;49.856;20.290;2024-02-04T06:22:56;4.60;;;1.60;;
34234;SDS011;20500;49.856;20.290;2024-02-04T06:26:02;7.20;;;1.90;;
34234;SDS011;20500;49.856;20.290;2024-02-04T06:29:09;5.60;;;1.70;;
34234;SDS011;20500;49.856;20.290;2024-02-04T06:32:15;5.40;;;1.70;;
34234;SDS011;20500;49.856;20.290;2024-02-04T06:35:23;5.30;;;1.90;;
34234;SDS011;20500;49.856;20.290;2024-02-04T06:38:29;4.70;;;1.70;;
34234;SDS011;20500;49.856;20.290;2024-02-04T06:41:35;6.10;;;1.70;;
34234;SDS011;20500;49.856;20.290;2024-02-04T06:44:43;5.00;;;1.80;;
34234;SDS011;20500;49.856;20.290;2024-02-04T06:47:49;4.80;;;1.70;;
34234;SDS011;20500;49.856;20.290;2024-02-04T06:50:55;5.70;;;2.10;;
34234;SDS011;20500;49.856;20.290;2024-02-04T06:54:02;4.60;;;1.80;;
34234;SDS011;20500;49.856;20.290;2024-02-04T07:00:13;6.20;;;2.10;;
34234;SDS011;20500;49.856;20.290;2024-02-04T07:03:20;5.30;;;2.10;;
34234;SDS011;20500;49.856;20.290;2024-02-04T07:09:31;6.10;;;2.00;;
34234;SDS011;20500;49.856;20.290;2024-02-04T07:12:38;5.90;;;2.00;;
34234;SDS011;20500;49.856;20.290;2024-02-04T07:15:44;5.30;;;1.80;;
34234;SDS011;20500;49.856;20.290;2024-02-04T07:21:55;6.60;;;2.10;;
34234;SDS011;20500;49.856;20.290;2024-02-04T07:25:01;3.20;;;1.40;;
34234;SDS011;20500;49.856;20.290;2024-02-04T07:28:08;5.50;;;2.10;;
34234;SDS011;20500;49.856;20.290;2024-02-04T07:31:14;7.30;;;2.10;;
34234;SDS011;20500;49.856;20.290;2024-02-04T07:34:22;8.00;;;2.10;;
34234;SDS011;20500;49.856;20.290;2024-02-04T07:37:28;6.60;;;1.90;;
34234;SDS011;20500;49.856;20.290;2024-02-04T07:40:34;5.40;;;1.80;;
34234;SDS011;20500;49.856;20.290;2024-02-04T07:43:40;4.40;;;1.70;;
34234;SDS011;20500;49.856;20.290;2024-02-04T07:49:51;7.70;;;2.40;;
34234;SDS011;20500;49.856;20.290;2024-02-04T07:52:58;6.00;;;1.80;;
34234;SDS011;20500;49.856;20.290;2024-02-04T07:56:04;7.20;;;1.90;;
34234;SDS011;20500;49.856;20.290;2024-02-04T07:59:11;8.80;;;2.60;;
34234;SDS011;20500;49.856;20.290;2024-02-04T08:02:17;7.50;;;2.30;;
34234;SDS011;20500;49.856;20.290;2024-02-04T08:08:28;8.20;;;2.30;;
34234;SDS011;20500;49.856;20.290;2024-02-04T08:11:35;6.80;;;2.00;;
34234;SDS011;20500;49.856;20.290;2024-02-04T08:14:41;11.30;;;3.70;;
34234;SDS011;20500;49.856;20.290;2024-02-04T08:17:47;9.20;;;2.60;;
34234;SDS011;20500;49.856;20.290;2024-02-04T08:20:54;8.30;;;2.50;;
34234;SDS011;20500;49.856;20.290;2024-02-04T08:24:01;8.30;;;2.20;;
34234;SDS011;20500;49.856;20.290;2024-02-04T08:27:07;8.00;;;2.30;;
34234;SDS011;20500;49.856;20.290;2024-02-04T08:33:19;11.00;;;3.10;;
34234;SDS011;20500;49.856;20.290;2024-02-04T08:36:26;8.00;;;2.50;;
34234;SDS011;20500;49.856;20.290;2024-02-04T08:39:33;7.10;;;2.20;;
34234;SDS011;20500;49.856;20.290;2024-02-04T08:42:39;7.50;;;2.20;;
34234;SDS011;20500;49.856;20.290;2024-02-04T08:45:46;9.00;;;1.90;;
34234;SDS011;20500;49.856;20.290;2024-02-04T08:48:52;6.90;;;1.80;;
34234;SDS011;20500;49.856;20.290;2024-02-04T08:55:04;6.60;;;1.90;;
34234;SDS011;20500;49.856;20.290;2024-02-04T08:58:12;6.90;;;2.10;;
34234;SDS011;20500;49.856;20.290;2024-02-04T09:01:19;8.80;;;1.80;;
34234;SDS011;20500;49.856;20.290;2024-02-04T09:07:30;9.20;;;2.00;;
34234;SDS011;20500;49.856;20.290;2024-02-04T09:10:36;6.40;;;2.00;;
34234;SDS011;20500;49.856;20.290;2024-02-04T09:16:47;9.30;;;2.70;;
34234;SDS011;20500;49.856;20.290;2024-02-04T09:22:59;7.60;;;2.70;;
34234;SDS011;20500;49.856;20.290;2024-02-04T09:26:06;10.80;;;3.30;;
34234;SDS011;20500;49.856;20.290;2024-02-04T09:32:16;6.90;;;2.60;;
34234;SDS011;20500;49.856;20.290;2024-02-04T09:35:23;7.80;;;2.60;;
34234;SDS011;20500;49.856;20.290;2024-02-04T09:38:29;8.50;;;2.80;;
34234;SDS011;20500;49.856;20.290;2024-02-04T09:44:40;11.00;;;3.20;;
34234;SDS011;20500;49.856;20.290;2024-02-04T09:47:47;6.70;;;2.50;;
34234;SDS011;20500;49.856;20.290;2024-02-04T09:50:58;11.40;;;3.10;;
34234;SDS011;20500;49.856;20.290;2024-02-04T09:54:05;11.00;;;2.70;;
34234;SDS011;20500;49.856;20.290;2024-02-04T09:57:14;11.20;;;2.60;;
34234;SDS011;20500;49.856;20.290;2024-02-04T10:00:20;9.90;;;2.90;;
34234;SDS011;20500;49.856;20.290;2024-02-04T10:03:27;8.00;;;2.20;;
34234;SDS011;20500;49.856;20.290;2024-02-04T10:06:34;6.80;;;2.40;;
34234;SDS011;20500;49.856;20.290;2024-02-04T10:09:40;9.90;;;2.70;;
34234;SDS011;20500;49.856;20.290;2024-02-04T10:12:47;8.90;;;3.10;;
34234;SDS011;20500;49.856;20.290;2024-02-04T10:15:53;9.80;;;3.30;;
34234;SDS011;20500;49.856;20.290;2024-02-04T10:18:59;9.40;;;3.60;;
34234;SDS011;20500;49.856;20.290;2024-02-04T10:22:07;10.10;;;3.40;;
34234;SDS011;20500;49.856;20.290;2024-02-04T10:25:13;7.20;;;2.90;;
34234;SDS011;20500;49.856;20.290;2024-02-04T10:28:19;10.40;;;3.60;;
34234;SDS011;20500;49.856;20.290;2024-02-04T10:31:26;9.80;;;3.70;;
34234;SDS011;20500;49.856;20.290;2024-02-04T10:34:35;8.70;;;2.80;;
34234;SDS011;20500;49.856;20.290;2024-02-04T10:37:43;8.90;;;3.20;;
34234;SDS011;20500;49.856;20.290;2024-02-04T10:40:49;9.90;;;3.80;;
34234;SDS011;20500;49.856;20.290;2024-02-04T10:43:58;11.20;;;3.70;;
34234;SDS011;20500;49.856;20.290;2024-02-04T10:47:07;10.40;;;3.60;;
34234;SDS011;20500;49.856;20.290;2024-02-04T10:50:21;9.70;;;3.20;;
34234;SDS011;20500;49.856;20.290;2024-02-04T10:53:32;9.30;;;3.40;;
34234;SDS011;20500;49.856;20.290;2024-02-04T10:56:40;9.20;;;3.00;;
34234;SDS011;20500;49.856;20.290;2024-02-04T10:59:49;8.50;;;3.30;;
34234;SDS011;20500;49.856;20.290;2024-02-04T11:02:55;9.20;;;3.20;;
34234;SDS011;20500;49.856;20.290;2024-02-04T11:06:03;10.30;;;3.50;;
34234;SDS011;20500;49.856;20.290;2024-02-04T11:09:10;8.60;;;3.10;;
34234;SDS011;20500;49.856;20.290;2024-02-04T11:12:18;10.00;;;3.80;;
34234;SDS011;20500;49.856;20.290;2024-02-04T11:15:26;9.40;;;3.70;;
34234;SDS011;20500;49.856;20.290;2024-02-04T11:18:42;9.30;;;4.00;;
34234;SDS011;20500;49.856;20.290;2024-02-04T11:22:08;9.80;;;3.80;;
34234;SDS011;20500;49.856;20.290;2024-02-04T11:25:33;9.60;;;3.80;;
34234;SDS011;20500;49.856;20.290;2024-02-04T11:28:47;9.10;;;3.60;;
34234;SDS011;20500;49.856;20.290;2024-02-04T11:35:01;10.30;;;4.00;;
34234;SDS011;20500;49.856;20.290;2024-02-04T11:38:11;11.10;;;4.00;;
34234;SDS011;20500;49.856;20.290;2024-02-04T11:41:24;10.20;;;4.00;;
34234;SDS011;20500;49.856;20.290;2024-02-04T11:44:31;11.40;;;4.60;;
34234;SDS011;20500;49.856;20.290;2024-02-04T11:50:43;12.10;;;4.10;;
34234;SDS011;20500;49.856;20.290;2024-02-04T11:53:56;9.50;;;3.80;;
34234;SDS011;20500;49.856;20.290;2024-02-04T11:57:04;10.80;;;4.40;;
34234;SDS011;20500;49.856;20.290;2024-02-04T12:00:11;10.40;;;3.90;;
34234;SDS011;20500;49.856;20.290;2024-02-04T12:03:27;9.90;;;3.80;;
34234;SDS011;20500;49.856;20.290;2024-02-04T12:06:35;10.70;;;4.20;;
34234;SDS011;20500;49.856;20.290;2024-02-04T12:09:41;8.90;;;3.10;;
34234;SDS011;20500;49.856;20.290;2024-02-04T12:12:48;10.90;;;3.60;;
34234;SDS011;20500;49.856;20.290;2024-02-04T12:18:59;9.70;;;3.60;;
34234;SDS011;20500;49.856;20.290;2024-02-04T12:22:07;9.50;;;3.70;;
34234;SDS011;20500;49.856;20.290;2024-02-04T12:25:13;9.50;;;3.40;;
34234;SDS011;20500;49.856;20.290;2024-02-04T12:28:20;9.40;;;3.50;;
34234;SDS011;20500;49.856;20.290;2024-02-04T12:31:27;9.60;;;3.40;;
34234;SDS011;20500;49.856;20.290;2024-02-04T12:34:35;9.90;;;4.50;;
34234;SDS011;20500;49.856;20.290;2024-02-04T12:37:51;9.40;;;3.40;;
34234;SDS011;20500;49.856;20.290;2024-02-04T12:41:02;10.30;;;3.80;;
34234;SDS011;20500;49.856;20.290;2024-02-04T12:44:08;9.20;;;3.40;;
34234;SDS011;20500;49.856;20.290;2024-02-04T12:50:23;9.40;;;3.10;;
34234;SDS011;20500;49.856;20.290;2024-02-04T12:53:30;8.60;;;3.30;;
34234;SDS011;20500;49.856;20.290;2024-02-04T12:59:50;10.30;;;3.40;;
34234;SDS011;20500;49.856;20.290;2024-02-04T13:02:57;10.10;;;4.10;;
34234;SDS011;20500;49.856;20.290;2024-02-04T13:06:06;10.60;;;4.30;;
34234;SDS011;20500;49.856;20.290;2024-02-04T13:09:12;9.80;;;3.80;;
34234;SDS011;20500;49.856;20.290;2024-02-04T13:12:20;10.50;;;4.50;;
34234;SDS011;20500;49.856;20.290;2024-02-04T13:18:31;10.30;;;3.90;;
34234;SDS011;20500;49.856;20.290;2024-02-04T13:21:37;9.70;;;4.30;;
34234;SDS011;20500;49.856;20.290;2024-02-04T13:27:47;11.50;;;4.20;;
34234;SDS011;20500;49.856;20.290;2024-02-04T13:30:54;11.70;;;4.80;;
34234;SDS011;20500;49.856;20.290;2024-02-04T13:37:07;11.50;;;5.40;;
34234;SDS011;20500;49.856;20.290;2024-02-04T13:40:14;15.90;;;7.30;;
34234;SDS011;20500;49.856;20.290;2024-02-04T13:43:21;14.00;;;7.00;;
34234;SDS011;20500;49.856;20.290;2024-02-04T13:46:28;12.60;;;5.90;;
34234;SDS011;20500;49.856;20.290;2024-02-04T13:49:34;13.30;;;6.40;;
34234;SDS011;20500;49.856;20.290;2024-02-04T13:52:40;15.80;;;6.70;;
34234;SDS011;20500;49.856;20.290;2024-02-04T13:55:46;14.10;;;7.50;;
34234;SDS011;20500;49.856;20.290;2024-02-04T13:58:52;13.90;;;7.20;;
34234;SDS011;20500;49.856;20.290;2024-02-04T14:05:05;15.00;;;8.00;;
34234;SDS011;20500;49.856;20.290;2024-02-04T14:08:11;14.70;;;7.70;;
34234;SDS011;20500;49.856;20.290;2024-02-04T14:14:23;14.90;;;7.50;;
34234;SDS011;20500;49.856;20.290;2024-02-04T14:17:29;14.80;;;7.10;;
34234;SDS011;20500;49.856;20.290;2024-02-04T14:20:35;14.90;;;7.00;;
34234;SDS011;20500;49.856;20.290;2024-02-04T14:26:46;13.90;;;7.40;;
34234;SDS011;20500;49.856;20.290;2024-02-04T14:32:57;12.10;;;6.00;;
34234;SDS011;20500;49.856;20.290;2024-02-04T14:36:03;11.50;;;4.80;;
34234;SDS011;20500;49.856;20.290;2024-02-04T14:39:10;12.70;;;5.60;;
34234;SDS011;20500;49.856;20.290;2024-02-04T14:42:17;11.50;;;4.80;;
34234;SDS011;20500;49.856;20.290;2024-02-04T14:45:23;9.80;;;4.30;;
34234;SDS011;20500;49.856;20.290;2024-02-04T14:48:29;10.90;;;4.20;;
34234;SDS011;20500;49.856;20.290;2024-02-04T14:51:39;12.90;;;5.20;;
34234;SDS011;20500;49.856;20.290;2024-02-04T14:54:46;10.50;;;4.30;;
34234;SDS011;20500;49.856;20.290;2024-02-04T14:57:52;9.20;;;3.70;;
34234;SDS011;20500;49.856;20.290;2024-02-04T15:00:59;9.30;;;3.50;;
34234;SDS011;20500;49.856;20.290;2024-02-04T15:04:08;8.90;;;2.90;;
34234;SDS011;20500;49.856;20.290;2024-02-04T15:07:15;10.50;;;3.80;;
34234;SDS011;20500;49.856;20.290;2024-02-04T15:10:21;8.70;;;3.30;;
34234;SDS011;20500;49.856;20.290;2024-02-04T15:16:37;8.90;;;3.40;;
34234;SDS011;20500;49.856;20.290;2024-02-04T15:19:44;8.70;;;3.20;;
34234;SDS011;20500;49.856;20.290;2024-02-04T15:22:52;8.60;;;3.30;;
34234;SDS011;20500;49.856;20.290;2024-02-04T15:26:00;8.80;;;3.00;;
34234;SDS011;20500;49.856;20.290;2024-02-04T15:29:08;10.70;;;4.00;;
34234;SDS011;20500;49.856;20.290;2024-02-04T15:32:18;8.70;;;3.20;;
34234;SDS011;20500;49.856;20.290;2024-02-04T15:35:25;9.80;;;3.60;;
34234;SDS011;20500;49.856;20.290;2024-02-04T15:38:32;5.60;;;2.00;;
34234;SDS011;20500;49.856;20.290;2024-02-04T15:44:43;7.70;;;2.60;;
34234;SDS011;20500;49.856;20.290;2024-02-04T15:47:50;8.80;;;2.80;;
34234;SDS011;20500;49.856;20.290;2024-02-04T15:50:58;8.30;;;2.90;;
34234;SDS011;20500;49.856;20.290;2024-02-04T15:54:05;7.30;;;2.70;;
34234;SDS011;20500;49.856;20.290;2024-02-04T15:57:12;7.30;;;2.60;;
34234;SDS011;20500;49.856;20.290;2024-02-04T16:00:21;10.30;;;3.50;;
34234;SDS011;20500;49.856;20.290;2024-02-04T16:03:29;9.10;;;3.50;;
34234;SDS011;20500;49.856;20.290;2024-02-04T16:06:37;9.80;;;3.50;;
34234;SDS011;20500;49.856;20.290;2024-02-04T16:09:44;9.90;;;3.50;;
34234;SDS011;20500;49.856;20.290;2024-02-04T16:12:55;9.20;;;3.40;;
34234;SDS011;20500;49.856;20.290;2024-02-04T16:16:05;9.50;;;3.60;;
34234;SDS011;20500;49.856;20.290;2024-02-04T16:19:17;10.80;;;4.20;;
34234;SDS011;20500;49.856;20.290;2024-02-04T16:22:24;12.30;;;4.20;;
34234;SDS011;20500;49.856;20.290;2024-02-04T16:25:30;11.40;;;4.60;;
34234;SDS011;20500;49.856;20.290;2024-02-04T16:28:37;10.00;;;3.70;;
34234;SDS011;20500;49.856;20.290;2024-02-04T16:31:44;9.30;;;3.30;;
34234;SDS011;20500;49.856;20.290;2024-02-04T16:37:55;9.60;;;3.70;;
34234;SDS011;20500;49.856;20.290;2024-02-04T16:41:02;10.60;;;4.70;;
34234;SDS011;20500;49.856;20.290;2024-02-04T16:44:10;10.60;;;4.80;;
34234;SDS011;20500;49.856;20.290;2024-02-04T16:47:17;14.00;;;5.40;;
34234;SDS011;20500;49.856;20.290;2024-02-04T16:53:29;10.30;;;4.00;;
34234;SDS011;20500;49.856;20.290;2024-02-04T16:56:35;11.40;;;4.60;;
34234;SDS011;20500;49.856;20.290;2024-02-04T16:59:42;9.80;;;3.60;;
34234;SDS011;20500;49.856;20.290;2024-02-04T17:02:49;8.30;;;2.70;;
34234;SDS011;20500;49.856;20.290;2024-02-04T17:05:57;9.20;;;3.00;;
34234;SDS011;20500;49.856;20.290;2024-02-04T17:09:04;9.00;;;3.00;;
34234;SDS011;20500;49.856;20.290;2024-02-04T17:12:18;10.40;;;4.10;;
34234;SDS011;20500;49.856;20.290;2024-02-04T17:15:27;9.30;;;3.20;;
34234;SDS011;20500;49.856;20.290;2024-02-04T17:18:36;10.20;;;3.40;;
34234;SDS011;20500;49.856;20.290;2024-02-04T17:21:49;10.10;;;3.90;;
34234;SDS011;20500;49.856;20.290;2024-02-04T17:25:02;11.30;;;4.70;;
34234;SDS011;20500;49.856;20.290;2024-02-04T17:28:11;9.60;;;3.40;;
34234;SDS011;20500;49.856;20.290;2024-02-04T17:31:18;10.70;;;4.60;;
34234;SDS011;20500;49.856;20.290;2024-02-04T17:34:25;11.10;;;4.40;;
34234;SDS011;20500;49.856;20.290;2024-02-04T17:37:33;11.50;;;4.70;;
34234;SDS011;20500;49.856;20.290;2024-02-04T17:40:40;11.80;;;5.00;;
34234;SDS011;20500;49.856;20.290;2024-02-04T17:46:50;12.30;;;5.80;;
34234;SDS011;20500;49.856;20.290;2024-02-04T17:49:56;16.00;;;7.20;;
34234;SDS011;20500;49.856;20.290;2024-02-04T17:53:03;12.60;;;5.30;;
34234;SDS011;20500;49.856;20.290;2024-02-04T17:56:10;11.50;;;4.30;;
34234;SDS011;20500;49.856;20.290;2024-02-04T17:59:20;9.70;;;4.00;;
34234;SDS011;20500;49.856;20.290;2024-02-04T18:02:26;10.40;;;4.00;;
34234;SDS011;20500;49.856;20.290;2024-02-04T18:05:48;10.40;;;3.90;;
34234;SDS011;20500;49.856;20.290;2024-02-04T18:08:55;11.70;;;4.50;;
34234;SDS011;20500;49.856;20.290;2024-02-04T18:12:01;10.90;;;4.20;;
34234;SDS011;20500;49.856;20.290;2024-02-04T18:15:08;9.10;;;3.60;;
34234;SDS011;20500;49.856;20.290;2024-02-04T18:18:16;12.50;;;5.10;;
34234;SDS011;20500;49.856;20.290;2024-02-04T18:24:27;12.10;;;5.50;;
34234;SDS011;20500;49.856;20.290;2024-02-04T18:27:34;8.30;;;3.20;;
34234;SDS011;20500;49.856;20.290;2024-02-04T18:30:41;8.50;;;3.30;;
34234;SDS011;20500;49.856;20.290;2024-02-04T18:33:48;9.30;;;3.40;;
34234;SDS011;20500;49.856;20.290;2024-02-04T18:36:55;9.20;;;3.40;;
34234;SDS011;20500;49.856;20.290;2024-02-04T18:43:16;9.40;;;3.80;;
34234;SDS011;20500;49.856;20.290;2024-02-04T18:46:22;11.70;;;4.80;;
34234;SDS011;20500;49.856;20.290;2024-02-04T18:49:28;10.60;;;4.50;;
34234;SDS011;20500;49.856;20.290;2024-02-04T18:52:37;8.90;;;3.50;;
34234;SDS011;20500;49.856;20.290;2024-02-04T18:55:43;9.60;;;3.70;;
34234;SDS011;20500;49.856;20.290;2024-02-04T18:58:52;11.80;;;4.90;;
34234;SDS011;20500;49.856;20.290;2024-02-04T19:01:59;9.20;;;3.60;;
34234;SDS011;20500;49.856;20.290;2024-02-04T19:08:11;11.50;;;4.70;;
34234;SDS011;20500;49.856;20.290;2024-02-04T19:11:18;9.30;;;2.90;;
34234;SDS011;20500;49.856;20.290;2024-02-04T19:14:24;10.60;;;3.80;;
34234;SDS011;20500;49.856;20.290;2024-02-04T19:17:31;9.70;;;3.80;;
34234;SDS011;20500;49.856;20.290;2024-02-04T19:20:42;10.00;;;3.70;;
34234;SDS011;20500;49.856;20.290;2024-02-04T19:26:53;9.00;;;3.40;;
34234;SDS011;20500;49.856;20.290;2024-02-04T19:29:59;8.90;;;3.00;;
34234;SDS011;20500;49.856;20.290;2024-02-04T19:33:06;11.90;;;5.00;;
34234;SDS011;20500;49.856;20.290;2024-02-04T19:36:14;10.80;;;3.80;;
34234;SDS011;20500;49.856;20.290;2024-02-04T19:39:21;9.70;;;3.80;;
34234;SDS011;20500;49.856;20.290;2024-02-04T19:42:27;11.50;;;4.10;;
34234;SDS011;20500;49.856;20.290;2024-02-04T19:45:33;9.60;;;3.50;;
34234;SDS011;20500;49.856;20.290;2024-02-04T19:51:45;11.30;;;4.30;;
34234;SDS011;20500;49.856;20.290;2024-02-04T19:54:52;8.30;;;3.20;;
34234;SDS011;20500;49.856;20.290;2024-02-04T19:57:58;10.30;;;3.80;;
34234;SDS011;20500;49.856;20.290;2024-02-04T20:01:05;9.10;;;2.80;;
34234;SDS011;20500;49.856;20.290;2024-02-04T20:07:16;9.90;;;3.70;;
34234;SDS011;20500;49.856;20.290;2024-02-04T20:10:24;10.00;;;3.80;;
34234;SDS011;20500;49.856;20.290;2024-02-04T20:16:40;10.80;;;4.60;;
34234;SDS011;20500;49.856;20.290;2024-02-04T20:22:51;10.30;;;3.60;;
34234;SDS011;20500;49.856;20.290;2024-02-04T20:26:00;9.30;;;3.70;;
34234;SDS011;20500;49.856;20.290;2024-02-04T20:29:06;9.00;;;3.50;;
34234;SDS011;20500;49.856;20.290;2024-02-04T20:32:13;10.70;;;4.00;;
34234;SDS011;20500;49.856;20.290;2024-02-04T20:38:26;9.50;;;3.80;;
34234;SDS011;20500;49.856;20.290;2024-02-04T20:41:32;11.80;;;4.80;;
34234;SDS011;20500;49.856;20.290;2024-02-04T20:44:38;9.90;;;4.10;;
34234;SDS011;20500;49.856;20.290;2024-02-04T20:47:45;9.20;;;3.60;;
34234;SDS011;20500;49.856;20.290;2024-02-04T20:50:52;10.20;;;4.20;;
34234;SDS011;20500;49.856;20.290;2024-02-04T20:53:59;11.50;;;4.00;;
34234;SDS011;20500;49.856;20.290;2024-02-04T20:57:05;9.10;;;3.40;;
34234;SDS011;20500;49.856;20.290;2024-02-04T21:00:13;11.10;;;4.50;;
34234;SDS011;20500;49.856;20.290;2024-02-04T21:03:20;9.70;;;3.70;;
34234;SDS011;20500;49.856;20.290;2024-02-04T21:09:35;10.50;;;3.50;;
34234;SDS011;20500;49.856;20.290;2024-02-04T21:12:41;10.10;;;3.30;;
34234;SDS011;20500;49.856;20.290;2024-02-04T21:18:52;9.30;;;3.40;;
34234;SDS011;20500;49.856;20.290;2024-02-04T21:21:58;8.90;;;3.30;;
34234;SDS011;20500;49.856;20.290;2024-02-04T21:25:06;10.10;;;3.90;;
34234;SDS011;20500;49.856;20.290;2024-02-04T21:28:13;9.30;;;3.10;;
34234;SDS011;20500;49.856;20.290;2024-02-04T21:34:23;9.20;;;3.30;;
34234;SDS011;20500;49.856;20.290;2024-02-04T21:37:30;9.60;;;3.20;;
34234;SDS011;20500;49.856;20.290;2024-02-04T21:40:36;8.60;;;2.80;;
34234;SDS011;20500;49.856;20.290;2024-02-04T21:43:45;9.70;;;3.80;;
34234;SDS011;20500;49.856;20.290;2024-02-04T21:46:51;10.40;;;3.60;;
34234;SDS011;20500;49.856;20.290;2024-02-04T21:49:57;7.80;;;2.40;;